Skip Navigation Links
NOAA logo - Click to go to the NOAA homepage
NOAA's National Weather Service
Alaska Aviation Weather Unit
  NWS logo - Click to go to the NWS homepage
Left Navbar Graphic     19 AKDT = 03 GMT

   
NOAA is celebrating 200 years of science, service, and stewardship. Visit the NOAA 200th celebration Web site to learn more.
USA.gov is the U.S. Government's official Web portal to all Federal, state and local government Web resources and services.
Facebook
NWS on Facebook

Important Change Regarding the AAWU Web Presence

 

Over the last several months, the AAWU has been working to navigate its webpages to a nationally supported server. Security, as well as other needs, have necessitated the change.  In the process, we have made an effort to enhance the functionality of our website, as well as some of our products. As of June 20, 2017, aawu.arh.noaa.gov will be discontinued. The new AAWU web address is weather.gov/aawu. It is now live and will run in-parallel with the old site until it is discontinued. Please send any feedback or questions regarding the new webpages to nws.ar.aawu.webauthors@noaa.gov.  Thank you for your patience during this time of transition.
AAWU Home :: Display TAF Add Bookmark
PADK 242116Z AUTO 29017G23KT 10SM FEW042 07/M02 A3034=

PADK 242136Z AUTO 28014G20KT 9SM SCT029 BKN035 BKN042 06/M03
     A3036=

METAR PADK 242156Z AUTO 28014G19KT 10SM FEW028 OVC035 07/M03 A3036=

PADK 242216Z AUTO 29018G23KT 10SM OVC039 08/M03 A3035=

PADK 242236Z AUTO 27018G23KT 10SM SCT041 08/M02 A3035=

METAR PADK 242256Z AUTO 30020G24KT 10SM SCT041 09/M02 A3034=

PADK 242316Z AUTO 28016G21KT 10SM SCT039 BKN045 08/M02 A3035=

PADK 242336Z AUTO 29015G21KT 10SM BKN036 OVC043 08/M02 A3035=

METAR PADK 242356Z AUTO 26016G20KT 10SM SCT034 OVC043 09/00 A3036=

PADK 250016Z AUTO 26015G20KT 10SM FEW033 SCT043 09/M01 A3036=

PADK 250036Z AUTO 25017G21KT 10SM FEW024 FEW033 BKN043 08/M01
     A3036=

METAR PADK 250056Z AUTO 24020G26KT 10SM SCT033 BKN042 09/M01 A3036=

PADK 250116Z AUTO 25021G25KT 10SM BKN033 OVC041 08/M01 A3037=

PADK 250136Z AUTO 25018G24KT 10SM FEW024 BKN031 08/00 A3037=

METAR PADK 250156Z AUTO 25019G26KT 10SM BKN031 08/00 A3036=

PADK 250216Z AUTO 26019G26KT 10SM FEW024 OVC031 08/M01 A3037=

PADK 250236Z AUTO 25019G23KT 10SM FEW024 OVC033 08/M01 A3037=

METAR PADK 250256Z AUTO 24016G24KT 10SM SCT024 OVC031 08/M01 A3037 RMK
     AO1=


NOAA's National Weather Service
Alaska Aviation Weather Unit
6930 Sand Lake Road
Anchorage, AK 99502-1845
Disclaimer
Credits
Glossary
Privacy Policy
About Us
Career Opportunities
Contact AAWU Internet Services Site last modified: April, 17th 2012